Flight Track Log - Related Links

Times and Time Zones

All times are in EDT time to prevent confusion due to time zone crossing. See the SWA2236 flight status page for this flight to view local times or setup timezone preferences in your user account.

Time Position Orientation Groundspeed Altitude Reporting Facility
EDT Latitude Longitude Course Direction KTS MPH feet Rate Location/Type
Tue 11:03:52 AM 41.2372 -95.8736 172° South 211 243 3,900  Level Minneapolis Center
Tue 11:04:52 AM 41.1681 -95.8706 178° South 269 310 6,200 2,833 Climbing Minneapolis Center
Tue 11:06:16 AM 41.0836 -95.9278 207° Southwest 277 319 10,700 2,836 Climbing Minneapolis Center
Tue 11:07:18 AM 41.0381 -96.0314 240° Southwest 307 353 13,100 2,661 Climbing Minneapolis Center
Tue 11:08:20 AM 40.9856 -96.1519 240° Southwest 360 414 16,200 2,952 Climbing Minneapolis Center
Tue 11:09:22 AM 40.9361 -96.2753 242° Southwest 376 433 19,200 2,710 Climbing Minneapolis Center
Tue 11:10:24 AM 40.8850 -96.4033 242° Southwest 387 445 21,800 2,710 Climbing Minneapolis Center
Tue 11:11:26 AM 40.8214 -96.5631 242° Southwest 403 464 24,800 2,468 Climbing Minneapolis Center
Tue 11:12:28 AM 40.7653 -96.7019 242° Southwest 420 483 26,900 2,032 Climbing Minneapolis Center
Tue 11:13:30 AM 40.7081 -96.8444 242° Southwest 432 497 29,000 1,935 Climbing Minneapolis Center
Tue 11:14:32 AM 40.6497 -96.9892 242° Southwest 444 511 30,900 1,935 Climbing Minneapolis Center
Tue 11:15:34 AM 40.5894 -97.1342 241° Southwest 450 518 33,000 1,500 Climbing Minneapolis Center
Tue 11:16:36 AM 40.5294 -97.2786 241° Southwest 449 517 34,000 968 Climbing Minneapolis Center
Tue 11:17:38 AM 40.4597 -97.4511 242° Southwest 451 519 35,000 373 Climbing Minneapolis Center
Tue 11:19:17 AM 40.3650 -97.6806 242° Southwest 447 514 35,000  Level Denver Center
Tue 11:20:18 AM 40.3164 -97.7986 242° Southwest 452 520 35,000 919 Level Denver Center
Tue 11:21:21 AM 40.2397 -97.9772 241° Southwest 463 533 36,900 1,510 Climbing Denver Center
Tue 11:22:49 AM 40.1539 -98.1806 241° Southwest 459 528 38,800 1,240 Climbing Minneapolis Center
Tue 11:23:51 AM 40.0819 -98.3525 241° Southwest 454 522 40,000 581 Climbing Minneapolis Center
Tue 11:24:53 AM 40.0211 -98.4939 241° Southwest 450 518 40,000  Level Minneapolis Center
Tue 11:25:55 AM 39.9592 -98.6361 240° Southwest 449 517 40,000  Level Minneapolis Center
Tue 11:26:57 AM 39.8978 -98.7800 241° Southwest 452 520 40,000  Level Minneapolis Center
Tue 11:27:46 AM 39.8489 -98.8936 241° Southwest 451 519 40,000  Level Denver Center
Tue 11:28:48 AM 39.7878 -99.0342 241° Southwest 447 514 40,000  Level Denver Center
Tue 11:29:50 AM 39.7264 -99.1742 240° Southwest 447 514 40,000  Level Denver Center
Tue 11:30:52 AM 39.6642 -99.3172 241° Southwest 451 519 40,000  Level Denver Center
Tue 11:31:54 AM 39.5886 -99.4883 240° Southwest 454 522 40,000  Level Denver Center
Tue 11:32:56 AM 39.5256 -99.6292 240° Southwest 454 522 40,000  Level Denver Center
Tue 11:33:58 AM 39.4625 -99.7731 240° Southwest 455 524 40,000  Level Denver Center
Tue 11:35:00 AM 39.4014 -99.9097 240° Southwest 456 525 40,000  Level Denver Center
Tue 11:36:02 AM 39.3311 -100.0661 240° Southwest 452 520 40,000  Level Denver Center
Tue 11:37:04 AM 39.2703 -100.2003 240° Southwest 450 518 40,000  Level Denver Center
Tue 11:38:06 AM 39.2281 -100.3708 252° West 446 513 40,000  Level Denver Center
Tue 11:39:08 AM 39.1975 -100.5189 255° West 447 514 40,000  Level Denver Center
Tue 11:40:10 AM 39.1617 -100.6897 255° West 443 510 40,000  Level Denver Center
Tue 11:41:12 AM 39.1292 -100.8372 254° West 447 514 40,000  Level Denver Center
Tue 11:42:14 AM 39.0914 -101.0111 254° West 451 519 40,000  Level Denver Center
Tue 11:43:16 AM 39.0650 -101.1350 255° West 451 519 40,000  Level Denver Center
Tue 11:44:18 AM 39.0272 -101.3061 254° West 445 512 40,000  Level Denver Center
Tue 11:45:20 AM 38.9897 -101.4772 254° West 444 511 40,000  Level Denver Center
Tue 11:46:22 AM 38.9631 -101.5994 254° West 445 512 40,000  Level Denver Center
Tue 11:47:24 AM 38.9208 -101.7931 254° West 441 507 40,000  Level Denver Center
Tue 11:48:27 AM 38.8864 -101.9375 253° West 442 509 40,000  Level Denver Center
Tue 11:49:29 AM 38.8517 -102.0925 254° West 444 511 40,000  Level Denver Center
Tue 11:50:31 AM 38.8133 -102.2611 254° West 442 509 40,000  Level Denver Center
Tue 11:51:33 AM 38.7806 -102.4050 254° West 441 507 40,000  Level Denver Center
Tue 11:52:35 AM 38.7375 -102.5689 251° West 438 504 40,000  Level Denver Center
Tue 11:53:37 AM 38.6769 -102.6983 239° Southwest 443 510 40,000  Level Denver Center
Tue 11:54:39 AM 38.6064 -102.8444 238° Southwest 442 509 40,000  Level Denver Center
Tue 11:55:53 AM 38.5253 -103.0153 239° Southwest 436 502 40,000  Level Denver Center
Tue 11:56:55 AM 38.4653 -103.1439 239° Southwest 439 505 40,000  Level Denver Center
Tue 11:58:09 AM 38.4042 -103.2706 238° Southwest 439 505 40,000  Level Denver Center
Tue 11:59:12 AM 38.3233 -103.4397 239° Southwest 439 505 40,000  Level Denver Center
Tue 12:00:14 PM 38.2511 -103.5878 238° Southwest 441 507 40,000  Level Denver Center
Tue 12:01:28 PM 38.1900 -103.7128 238° Southwest 438 504 40,000  Level Denver Center
Tue 12:02:30 PM 38.1078 -103.8811 238° Southwest 439 505 40,000  Level Denver Center
Tue 12:03:32 PM 38.0367 -104.0272 238° Southwest 438 504 40,000  Level Denver Center
Tue 12:04:34 PM 37.9856 -104.1325 238° Southwest 440 506 40,000  Level Denver Center
Tue 12:05:36 PM 37.9239 -104.2569 238° Southwest 439 505 40,000  Level Denver Center
Tue 12:06:50 PM 37.8411 -104.4233 238° Southwest 441 507 40,000  Level Denver Center
Tue 12:07:53 PM 37.7589 -104.5889 238° Southwest 439 505 40,000  Level Denver Center
Tue 12:08:55 PM 37.6964 -104.7117 237° Southwest 435 501 40,000  Level Denver Center
Tue 12:09:57 PM 37.6236 -104.8581 238° Southwest 441 507 40,000  Level Denver Center
Tue 12:10:59 PM 37.5614 -104.9814 238° Southwest 438 504 40,000  Level Denver Center
Tue 12:12:01 PM 37.4872 -105.1264 237° Southwest 440 506 40,000  Level Denver Center
Tue 12:13:03 PM 37.4197 -105.2589 237° Southwest 440 506 40,000  Level Denver Center
Tue 12:14:05 PM 37.3569 -105.3819 237° Southwest 438 504 40,000  Level Denver Center
Tue 12:15:07 PM 37.2828 -105.5267 237° Southwest 440 506 40,000  Level Denver Center
Tue 12:16:09 PM 37.2117 -105.6608 236° Southwest 440 506 40,000  Level Denver Center
Tue 12:17:12 PM 37.1497 -105.7853 238° Southwest 440 506 40,000  Level Denver Center
Tue 12:18:14 PM 37.0800 -105.9147 236° Southwest 438 504 40,000  Level Denver Center
Tue 12:19:16 PM 37.0125 -106.0489 238° Southwest 437 503 40,000  Level Denver Center
Tue 12:20:18 PM 36.9425 -106.1772 236° Southwest 435 501 40,000  Level Denver Center
Tue 12:21:20 PM 36.8706 -106.3200 238° Southwest 434 499 40,000  Level Denver Center
Tue 12:22:22 PM 36.8061 -106.4411 236° Southwest 437 503 40,000  Level Denver Center
Tue 12:23:36 PM 36.7311 -106.5811 236° Southwest 436 502 40,000  Level Denver Center
Tue 12:24:38 PM 36.6569 -106.7247 237° Southwest 440 506 40,000  Level Denver Center
Tue 12:25:40 PM 36.5828 -106.8644 237° Southwest 436 502 40,000  Level Denver Center
Tue 12:26:42 PM 36.5175 -106.9858 236° Southwest 439 505 40,000  Level Denver Center
Tue 12:27:44 PM 36.4417 -107.1244 236° Southwest 436 502 40,000  Level Denver Center
Tue 12:28:46 PM 36.3778 -107.2433 236° Southwest 433 498 40,000  Level Denver Center
Tue 12:29:42 PM 36.3147 -107.3639 237° Southwest 432 497 40,000  Level Albuquerque Center
Tue 12:30:44 PM 36.2503 -107.4811 236° Southwest 430 495 40,000  Level Albuquerque Center
Tue 12:31:46 PM 36.1753 -107.6175 236° Southwest 428 493 40,000  Level Albuquerque Center
Tue 12:32:47 PM 36.1117 -107.7350 236° Southwest 428 493 40,000  Level Albuquerque Center
Tue 12:33:49 PM 36.0372 -107.8711 236° Southwest 427 491 40,000  Level Albuquerque Center
Tue 12:34:51 PM 35.9733 -107.9878 236° Southwest 427 491 40,000  Level Albuquerque Center
Tue 12:35:53 PM 35.8964 -108.1253 235° Southwest 431 496 40,000  Level Albuquerque Center
Tue 12:36:55 PM 35.8228 -108.2369 231° Southwest 434 499 40,000  Level Albuquerque Center
Tue 12:37:57 PM 35.7475 -108.3475 230° Southwest 436 502 40,000  Level Albuquerque Center
Tue 12:38:59 PM 35.6594 -108.4772 230° Southwest 438 504 40,000  Level Albuquerque Center
Tue 12:40:01 PM 35.5839 -108.5889 230° Southwest 441 507 40,000  Level Albuquerque Center
Tue 12:41:03 PM 35.4972 -108.7172 230° Southwest 437 503 40,000  Level Albuquerque Center
Tue 12:42:05 PM 35.4225 -108.8269 230° Southwest 435 501 40,000  Level Albuquerque Center
Tue 12:43:07 PM 35.3358 -108.9547 230° Southwest 435 501 40,000  Level Albuquerque Center
Tue 12:44:08 PM 35.2625 -109.0617 230° Southwest 430 495 40,000 -488 Level Albuquerque Center
Tue 12:45:10 PM 35.1892 -109.1675 230° Southwest 427 491 39,000 -968 Descending Albuquerque Center
Tue 12:46:12 PM 35.1031 -109.2933 230° Southwest 429 494 38,000 -484 Descending Albuquerque Center
Tue 12:47:14 PM 35.0294 -109.4014 230° Southwest 430 495 38,000 -677 Level Albuquerque Center
Tue 12:48:16 PM 34.9428 -109.5242 229° Southwest 428 493 36,600 -968 Descending Albuquerque Center
Tue 12:49:18 PM 34.8700 -109.6294 230° Southwest 425 489 36,000 -290 Descending Albuquerque Center
Tue 12:50:20 PM 34.7850 -109.7508 230° Southwest 421 484 36,000  Level Albuquerque Center
Tue 12:51:22 PM 34.7136 -109.8575 231° Southwest 423 487 36,000  Level Albuquerque Center
Tue 12:52:24 PM 34.6572 -110.0042 245° Southwest 425 489 36,000  Level Albuquerque Center
Tue 12:53:26 PM 34.6106 -110.1289 246° West 425 489 36,000  Level Albuquerque Center
Tue 12:54:28 PM 34.5628 -110.2544 245° Southwest 426 490 36,000 -1,161 Level Albuquerque Center
Tue 12:55:30 PM 34.5072 -110.3997 245° Southwest 424 488 33,600 -1,512 Descending Albuquerque Center
Tue 12:56:31 PM 34.4639 -110.5208 247° West 425 489 32,900 -1,561 Descending Albuquerque Center
Tue 12:57:33 PM 34.4133 -110.6508 245° Southwest 427 491 30,400 -2,371 Descending Albuquerque Center
Tue 12:58:35 PM 34.3536 -110.7992 244° Southwest 413 475 28,000 -1,984 Descending Albuquerque Center
Tue 12:59:37 PM 34.2781 -110.8975 227° Southwest 399 459 26,300 -1,790 Descending Albuquerque Center
Tue 01:00:39 PM 34.2031 -110.9933 227° Southwest 396 456 24,300 -1,935 Descending Albuquerque Center
Tue 01:01:41 PM 34.1303 -111.0853 226° Southwest 384 442 22,300 -1,935 Descending Albuquerque Center
Tue 01:02:43 PM 34.0606 -111.1742 227° Southwest 373 429 20,300 -1,935 Descending Albuquerque Center
Tue 01:03:45 PM 33.9928 -111.2633 227° Southwest 363 418 18,300 -1,984 Descending Albuquerque Center
Tue 01:04:47 PM 33.9244 -111.3511 227° Southwest 358 412 16,200 -1,742 Descending Albuquerque Center
Tue 01:05:49 PM 33.8536 -111.4564 231° Southwest 333 383 14,700 -1,548 Descending Albuquerque Center
Tue 01:06:51 PM 33.8075 -111.5461 238° Southwest 316 364 13,000 -1,597 Descending Albuquerque Center
Tue 01:07:53 PM 33.7608 -111.6336 237° Southwest 308 354 11,400 -1,403 Descending Albuquerque Center
Tue 01:08:55 PM 33.7156 -111.7178 237° Southwest 299 344 10,100 -677 Descending Albuquerque Center
Tue 01:09:57 PM 33.6761 -111.7903 237° Southwest 262 302 10,000 -390 Descending Albuquerque Center
Tue 01:10:58 PM 33.6397 -111.8575 237° Southwest 242 278 9,300 -439 Descending Albuquerque Center
Tue 01:12:00 PM 33.6022 -111.9233 236° Southwest 239 275 9,100 -581 Descending Albuquerque Center
Tue 01:13:02 PM 33.5389 -111.9497 199° South 258 297 8,100 -1,016 Descending Albuquerque Center
Tue 01:14:04 PM 33.5228 -112.0242 255° West 244 281 7,000 -532 Descending Albuquerque Center
Tue 01:15:06 PM 33.5258 -112.1067 273° West 203 234 7,000 -435 Level Albuquerque Center
Tue 01:16:08 PM 33.5286 -112.1683 273° West 188 216 6,100 -1,016 Descending Albuquerque Center
Tue 01:17:10 PM 33.4958 -112.1972 216° Southwest 189 217 4,900 -1,210 Descending Albuquerque Center
Tue 01:18:12 PM 33.4606 -112.1508 132° Southeast 190 219 3,600 -1,268 Descending Albuquerque Center
Tue 01:19:13 PM 33.4403 -112.1011 116° Southeast 180 207 2,300 -1,053 Descending Albuquerque Center
Tue 01:20:23 PM 33.4333 -112.0333 97° East 142 163 1,300 -857 Descending Phoenix TRACON

Login

Don't have an account? Register now (free) for customized features, flight alerts, and more!